This is the latest recevied weather packets stored in our database for station/object KF4CQ. If no packets are shown the sender has not sent any weather packets the latest 10 day(s).
| Time | Temp. | Humidity | Pressure | Rain* | Wind** | Luminosity | Snow |
|---|---|---|---|---|---|---|---|
| 1778023457 | 26.67° C | 59% | 1015.6 hPa | 0 mm | - | 22 W/m² | - |
| 1778023153 | 26.67° C | 59% | 1015.6 hPa | 0 mm | - | 24 W/m² | - |
| 1778022851 | 26.67° C | 59% | 1015.5 hPa | 0 mm | - | 29 W/m² | - |
| 1778022549 | 26.67° C | 59% | 1015.5 hPa | 0 mm | - | 28 W/m² | - |
| 1778022246 | 27.22° C | 59% | 1015.5 hPa | 0 mm | - | 29 W/m² | - |
| 1778021943 | 27.22° C | 58% | 1015.5 hPa | 0 mm | - | 33 W/m² | - |
| 1778021640 | 27.22° C | 58% | 1015.4 hPa | 0 mm | - | 33 W/m² | - |
| 1778021335 | 27.22° C | 57% | 1015.6 hPa | 0 mm | - | 37 W/m² | - |
| 1778021033 | 27.78° C | 57% | 1015.5 hPa | 0 mm | - | 41 W/m² | - |
| 1778020730 | 27.78° C | 57% | 1015.4 hPa | 0 mm | - | 45 W/m² | - |
| 1778020427 | 27.78° C | 56% | 1015.4 hPa | 0 mm | - | 55 W/m² | - |
| 1778020122 | 28.33° C | 55% | 1015.5 hPa | 0 mm | - | 55 W/m² | - |
| 1778019819 | 28.33° C | 54% | 1015.4 hPa | 0 mm | - | 55 W/m² | - |
| 1778019516 | 28.89° C | 52% | 1015.4 hPa | 0 mm | - | 52 W/m² | - |
| 1778019212 | 28.89° C | 52% | 1015.3 hPa | 0 mm | - | 62 W/m² | - |
| 1778018910 | 28.89° C | 50% | 1015.6 hPa | 0 mm | - | 61 W/m² | - |
| 1778018606 | 28.89° C | 49% | 1015.6 hPa | 0 mm | - | 69 W/m² | - |
| 1778018305 | 29.44° C | 46% | 1015.6 hPa | 0 mm | - | 68 W/m² | - |
| 1778018003 | 29.44° C | 44% | 1015.5 hPa | 0 mm | - | 63 W/m² | - |
| 1778017700 | 29.44° C | 45% | 1015.6 hPa | 0 mm | - | 81 W/m² | - |
| 1778017398 | 30° C | 43% | 1015.6 hPa | 0 mm | - | 76 W/m² | - |
| 1778017094 | 30° C | 44% | 1015.5 hPa | 0 mm | - | 89 W/m² | - |
| 1778016792 | 29.44° C | 44% | 1015.5 hPa | 0 mm | - | 218 W/m² | - |
| 1778016488 | 30° C | 44% | 1015.3 hPa | 0 mm | - | 104 W/m² | - |
| 1778016185 | 30° C | 43% | 1015.6 hPa | 0 mm | - | 143 W/m² | - |
* Rain latest hour (hover to see other rain measurements)
** Current wind speed in m/s (hover to see current wind gust speed)